Ligari — 9HQY8 — position and weather

sailwx.info

Track history (hours):
 
Tides and Currents Weather Stations Pressure Air Temp Water Temp Dewpoint Dewpoint Depression Visibility Wind Speed Wind Dir Waves Ship Positions

Ligari

Last reported at 2018-May-22 23:02 UTC. Time now 2018-Jun-19 04:44 UTC.
Position N 31°23' E 032°16'.
Warning: this ship's position is 27 days out of date.

Length 225 m; draft 13.2 m.

Type: Cargo ship. MMSI: 256317000.

Date/timePositionNaut miles runAvg speedWind from/ knotsBaromVisibWave heightAir tempDewpointWater temp
2018-May-22 23:02N 31°23' E 032°16'  
2018-May-19 11:07N 36°37' E 013°12'112.6
2018-May-19 11:00N 36°38' E 013°10'  
2018-May-16 09:16N 36°05' W 005°16'310.3
2018-May-16 08:56N 36°04' W 005°20'3 6.0
2018-May-16 08:30N 36°05' W 005°23'2 0.9
2018-May-16 05:44N 36°07' W 005°22'0 0.2
2018-May-16 05:23N 36°07' W 005°22'0 0.3
2018-May-16 04:56N 36°07' W 005°22'0 0.1
2018-May-16 04:29N 36°07' W 005°22'0 0.1
2018-May-16 03:56N 36°07' W 005°22'0 0.1
2018-May-16 03:26N 36°07' W 005°22'0 0.2
2018-May-16 02:59N 36°07' W 005°22'0 0.2
2018-May-16 02:20N 36°07' W 005°22'0 0.2
2018-May-16 01:38N 36°07' W 005°22'0 0.3
2018-May-16 01:20N 36°07' W 005°22'0 0.2
2018-May-16 00:56N 36°07' W 005°22'0 0.1
2018-May-16 00:20N 36°07' W 005°22'0 0.1
2018-May-15 23:47N 36°07' W 005°22'0 0.2
2018-May-15 23:14N 36°07' W 005°22'0 0.1
2018-May-15 22:50N 36°07' W 005°22'0 0.0
2018-May-15 22:02N 36°07' W 005°22'0 0.0
2018-May-15 21:59N 36°07' W 005°22'0 0.0
2018-May-15 21:26N 36°07' W 005°22'0 0.2
2018-May-15 20:47N 36°07' W 005°22'1 2.2
2018-May-15 20:30N 36°06' W 005°22'2 4.9
2018-May-15 20:00N 36°05' W 005°20'2 4.3
2018-May-15 19:30N 36°04' W 005°18'2 4.0
2018-May-15 18:58N 36°04' W 005°15'4 9.6
2018-May-15 18:30N 36°00' W 005°17'713.1
2018-May-15 18:00N 35°59' W 005°25'4912.8
2018-May-15 14:13N 35°57' W 006°25'312.1
2018-May-15 14:00N 35°58' W 006°28'612.4
2018-May-15 13:30N 35°59' W 006°36'712.7
2018-May-15 12:58N 36°01' W 006°44'5112.2
2018-May-15 08:48N 36°14' W 007°45'311.8
2018-May-15 08:31N 36°15' W 007°49'611.7
2018-May-15 08:00N 36°17' W 007°56'611.8
2018-May-15 07:31N 36°18' W 008°03'611.9
2018-May-15 07:01N 36°20' W 008°10'612.1
2018-May-15 06:31N 36°21' W 008°17'612.2
2018-May-15 06:00N 36°23' W 008°25'612.2
2018-May-15 05:30N 36°24' W 008°32'2011.9
2018-May-15 03:48N 36°29' W 008°57'411.6
2018-May-15 03:29N 36°29' W 009°01'11011.2
2018-May-14 17:42N 38°10' W 009°57'312.8
2018-May-14 17:27N 38°13' W 009°58'712.9
2018-May-14 16:55N 38°20' W 009°60'512.6
2018-May-14 16:31N 38°25' W 010°01'612.5
2018-May-14 16:01N 38°31' W 010°03'612.6
2018-May-14 15:30N 38°37' W 010°05'612.5
2018-May-14 15:00N 38°43' W 010°06'612.4
2018-May-14 14:30N 38°49' W 010°06'612.4
2018-May-14 14:00N 38°55' W 010°07'612.1
2018-May-14 13:30N 39°01' W 010°07'612.3
2018-May-14 13:01N 39°08' W 010°07'612.1
2018-May-14 12:30N 39°14' W 010°07'812.6
2018-May-14 11:53N 39°21' W 010°08'  
Track history (hours):
 
Tides and Currents Weather Stations Pressure Air Temp Water Temp Dewpoint Dewpoint Depression Visibility Wind Speed Wind Dir Waves Ship Positions

Ligari

Last reported at 2018-May-22 23:02 UTC. Time now 2018-Jun-19 04:44 UTC.
Position N 31°23' E 032°16'.
Warning: this ship's position is 27 days out of date.

Length 225 m; draft 13.2 m.

Type: Cargo ship. MMSI: 256317000.

Date/timePositionNaut miles runAvg speedWind from/ knotsBaromVisibWave heightAir tempDewpointWater temp
2018-May-22 23:02N 31°23' E 032°16'  
2018-May-19 11:07N 36°37' E 013°12'112.6
2018-May-19 11:00N 36°38' E 013°10'  
2018-May-16 09:16N 36°05' W 005°16'310.3
2018-May-16 08:56N 36°04' W 005°20'3 6.0
2018-May-16 08:30N 36°05' W 005°23'2 0.9
2018-May-16 05:44N 36°07' W 005°22'0 0.2
2018-May-16 05:23N 36°07' W 005°22'0 0.3
2018-May-16 04:56N 36°07' W 005°22'0 0.1
2018-May-16 04:29N 36°07' W 005°22'0 0.1
2018-May-16 03:56N 36°07' W 005°22'0 0.1
2018-May-16 03:26N 36°07' W 005°22'0 0.2
2018-May-16 02:59N 36°07' W 005°22'0 0.2
2018-May-16 02:20N 36°07' W 005°22'0 0.2
2018-May-16 01:38N 36°07' W 005°22'0 0.3
2018-May-16 01:20N 36°07' W 005°22'0 0.2
2018-May-16 00:56N 36°07' W 005°22'0 0.1
2018-May-16 00:20N 36°07' W 005°22'0 0.1
2018-May-15 23:47N 36°07' W 005°22'0 0.2
2018-May-15 23:14N 36°07' W 005°22'0 0.1
2018-May-15 22:50N 36°07' W 005°22'0 0.0
2018-May-15 22:02N 36°07' W 005°22'0 0.0
2018-May-15 21:59N 36°07' W 005°22'0 0.0
2018-May-15 21:26N 36°07' W 005°22'0 0.2
2018-May-15 20:47N 36°07' W 005°22'1 2.2
2018-May-15 20:30N 36°06' W 005°22'2 4.9
2018-May-15 20:00N 36°05' W 005°20'2 4.3
2018-May-15 19:30N 36°04' W 005°18'2 4.0
2018-May-15 18:58N 36°04' W 005°15'4 9.6
2018-May-15 18:30N 36°00' W 005°17'713.1
2018-May-15 18:00N 35°59' W 005°25'4912.8
2018-May-15 14:13N 35°57' W 006°25'312.1
2018-May-15 14:00N 35°58' W 006°28'612.4
2018-May-15 13:30N 35°59' W 006°36'712.7
2018-May-15 12:58N 36°01' W 006°44'5112.2
2018-May-15 08:48N 36°14' W 007°45'311.8
2018-May-15 08:31N 36°15' W 007°49'611.7
2018-May-15 08:00N 36°17' W 007°56'611.8
2018-May-15 07:31N 36°18' W 008°03'611.9
2018-May-15 07:01N 36°20' W 008°10'612.1
2018-May-15 06:31N 36°21' W 008°17'612.2
2018-May-15 06:00N 36°23' W 008°25'612.2
2018-May-15 05:30N 36°24' W 008°32'2011.9
2018-May-15 03:48N 36°29' W 008°57'411.6
2018-May-15 03:29N 36°29' W 009°01'11011.2
2018-May-14 17:42N 38°10' W 009°57'312.8
2018-May-14 17:27N 38°13' W 009°58'712.9
2018-May-14 16:55N 38°20' W 009°60'512.6
2018-May-14 16:31N 38°25' W 010°01'612.5
2018-May-14 16:01N 38°31' W 010°03'612.6
2018-May-14 15:30N 38°37' W 010°05'612.5
2018-May-14 15:00N 38°43' W 010°06'612.4
2018-May-14 14:30N 38°49' W 010°06'612.4
2018-May-14 14:00N 38°55' W 010°07'612.1
2018-May-14 13:30N 39°01' W 010°07'612.3
2018-May-14 13:01N 39°08' W 010°07'612.1
2018-May-14 12:30N 39°14' W 010°07'812.6
2018-May-14 11:53N 39°21' W 010°08'  

Dump ship's entire track history